Weather at Centerpoint Energy South Houston Heliport

Public forecast

Using degrees Fahrenheit for public forecast. Weather courtesy of forecast.io.

Closest aviation weather report (METAR) to Centerpoint Energy South Houston Heliport

Closest report is Ellington Airport, 3.5 nm (6.4 km) SE. Retrieved 2020/12/01 01:50 UTC (31 minutes ago):

KEFD 010150Z 27003KT 10SM CLR 09/M04 A3033

Closest aviation forecast (TAF) to Centerpoint Energy South Houston Heliport

Forecast is more than 6 hours old.

Closest forecast is Ellington Airport, 3.5 nm (6.4 km) SE. Retrieved 2020/11/30 20:11 UTC (6 hours ago):

TAF KEFD 302000Z 3020/0202 33012G18KT 9999 SKC QNH3028INS BECMG 0100/0101 33006KT 9999 SKC QNH3025INS BECMG 0121/0122 17009KT 9999 BKN040 QNH3010INS TX17/0120Z TN03/0113Z